Time;durP1;ratioP1;P1;durP2;ratioP2;P2;SDS_P1;SDS_P2;PMS_P1;PMS_P2;Temp;Humidity;BMP_temperature;BMP_pressure;BME280_temperature;BME280_humidity;BME280_pressure;Samples;Min_cycle;Max_cycle;Signal;HPM_P1;HPM_P2
2020/12/02 00:00:31;;;;;;;19.55;14.60;;;4.20;83.60;11.80;100104.00;;;;5049472;28;20285;-65
2020/12/02 00:03:32;;;;;;;18.27;14.00;;;4.20;83.60;11.90;100108.00;;;;5048577;28;20272;-65
2020/12/02 00:05:59;;;;;;;18.80;12.82;;;4.20;83.60;11.90;100097.00;;;;5052850;28;20445;-65
2020/12/02 00:08:39;;;;;;;16.35;12.65;;;4.20;83.60;11.80;100107.00;;;;5052665;28;20213;-65
2020/12/02 00:11:09;;;;;;;21.13;14.85;;;4.20;83.60;11.80;100102.00;;;;5068722;28;20608;-66
2020/12/02 00:13:38;;;;;;;19.77;13.65;;;4.20;84.40;11.80;100101.00;;;;5050055;28;20185;-65
2020/12/02 00:16:04;;;;;;;19.05;13.98;;;4.20;83.50;11.80;100098.00;;;;5049000;28;20882;-64
2020/12/02 00:18:30;;;;;;;18.00;13.48;;;4.20;83.50;11.90;100097.00;;;;5048391;28;20193;-65
2020/12/02 00:20:56;;;;;;;20.40;14.87;;;4.20;83.50;11.70;100110.00;;;;5049121;28;20214;-65
2020/12/02 00:23:21;;;;;;;18.57;12.80;;;4.20;83.50;11.90;100112.00;;;;5049639;28;20193;-66
2020/12/02 00:25:47;;;;;;;20.33;13.97;;;4.20;83.50;11.90;100078.00;;;;5049213;28;20224;-65
2020/12/02 00:28:13;;;;;;;19.40;13.80;;;4.20;83.50;11.90;100106.00;;;;5049858;28;20182;-64
2020/12/02 00:30:40;;;;;;;18.27;13.90;;;4.20;83.50;11.90;100102.00;;;;5049192;28;20260;-65
2020/12/02 00:33:11;;;;;;;18.70;13.32;;;4.20;83.50;11.90;100113.00;;;;5049436;28;20441;-65
2020/12/02 00:35:37;;;;;;;19.33;14.75;;;4.20;83.50;11.90;100110.00;;;;5049975;28;20277;-65
2020/12/02 00:38:05;;;;;;;18.60;13.73;;;4.20;83.60;11.80;100111.00;;;;5033673;28;20170;-65
2020/12/02 00:40:31;;;;;;;15.15;12.18;;;4.20;83.40;11.90;100120.00;;;;5049006;28;20234;-65
2020/12/02 00:42:57;;;;;;;17.67;13.53;;;4.20;83.50;11.90;100118.00;;;;5049725;28;20213;-65
2020/12/02 00:45:23;;;;;;;18.67;13.05;;;4.20;83.50;11.70;100108.00;;;;5048939;28;20214;-64
2020/12/02 00:47:50;;;;;;;18.77;14.03;;;4.20;83.50;11.70;100113.00;;;;5049060;28;20699;-66
2020/12/02 00:50:16;;;;;;;20.95;14.30;;;4.20;83.50;11.90;100123.00;;;;5032637;28;20178;-65
2020/12/02 00:52:41;;;;;;;18.97;13.57;;;4.20;83.50;11.90;100115.00;;;;5049616;28;20185;-66
2020/12/02 00:55:07;;;;;;;19.03;13.40;;;4.20;83.50;11.80;100078.00;;;;5031311;28;20947;-65
2020/12/02 00:57:35;;;;;;;18.07;14.03;;;4.20;83.50;11.90;100105.00;;;;5055009;28;20250;-65
2020/12/02 01:00:01;;;;;;;17.40;13.10;;;4.20;83.40;11.90;100125.00;;;;5048431;28;20215;-65
2020/12/02 01:03:10;;;;;;;20.23;13.93;;;4.20;83.50;11.80;100123.00;;;;5057001;28;20714;-66
2020/12/02 01:05:36;;;;;;;20.88;13.30;;;4.20;83.50;11.70;100122.00;;;;5015312;28;20309;-65
2020/12/02 01:08:27;;;;;;;18.67;13.30;;;4.20;83.40;11.90;100122.00;;;;5038543;28;20225;-65
2020/12/02 01:11:19;;;;;;;17.77;13.27;;;4.20;83.40;11.80;100104.00;;;;5069898;28;20205;-65
2020/12/02 01:13:45;;;;;;;20.55;14.40;;;4.10;83.30;11.80;100105.00;;;;5055631;28;20707;-65
2020/12/02 01:16:15;;;;;;;19.20;13.07;;;4.10;83.40;11.90;100109.00;;;;5051417;28;20189;-65
2020/12/02 01:18:40;;;;;;;21.05;14.20;;;4.10;83.30;11.90;100096.00;;;;5052783;28;20417;-65
2020/12/02 01:21:22;;;;;;;17.83;12.97;;;4.10;83.30;11.80;100110.00;;;;5068231;28;20197;-65
2020/12/02 01:23:54;;;;;;;18.02;13.32;;;4.20;83.50;11.80;100104.00;;;;5068838;28;20243;-65
2020/12/02 01:26:20;;;;;;;19.40;13.63;;;4.10;83.40;11.80;100096.00;;;;5052771;28;20254;-65
2020/12/02 01:28:47;;;;;;;18.50;13.73;;;4.10;83.40;11.90;100096.00;;;;5035428;28;20185;-65
2020/12/02 01:31:13;;;;;;;20.63;14.07;;;4.10;84.10;11.90;100105.00;;;;5051492;28;20501;-65
2020/12/02 01:33:39;;;;;;;18.03;13.40;;;4.10;83.40;11.80;100101.00;;;;5052301;28;20644;-65
2020/12/02 01:36:04;;;;;;;18.87;13.60;;;4.10;83.40;11.90;100100.00;;;;5051009;28;20205;-66
2020/12/02 01:38:34;;;;;;;17.50;13.33;;;4.10;83.40;11.60;100098.00;;;;5052202;28;20268;-65
2020/12/02 01:41:00;;;;;;;18.83;14.10;;;4.10;83.40;11.80;100091.00;;;;5051694;28;20208;-65
2020/12/02 01:43:26;;;;;;;18.17;13.50;;;4.10;83.40;11.80;100099.00;;;;5051639;28;20177;-65
2020/12/02 01:45:55;;;;;;;20.80;14.63;;;4.10;83.40;12.00;100103.00;;;;5067733;28;20213;-65
2020/12/02 01:48:44;;;;;;;19.77;14.00;;;4.10;83.40;11.90;100096.00;;;;5069638;28;20173;-64
2020/12/02 01:51:46;;;;;;;18.60;13.38;;;4.10;83.40;11.80;100096.00;;;;5051693;28;20683;-65
2020/12/02 01:54:18;;;;;;;20.38;14.20;;;4.10;83.40;11.80;100092.00;;;;5056819;28;20196;-66
2020/12/02 01:57:12;;;;;;;18.27;13.80;;;4.10;83.50;11.70;100104.00;;;;5056122;28;20377;-65
2020/12/02 01:59:47;;;;;;;19.60;13.40;;;4.10;83.40;11.60;100110.00;;;;5072820;28;20212;-65
2020/12/02 02:02:37;;;;;;;21.85;14.27;;;4.00;83.40;11.80;100101.00;;;;5055703;28;20228;-66
2020/12/02 02:05:25;;;;;;;20.65;13.90;;;4.10;83.50;11.70;100112.00;;;;5039650;28;20213;-65
2020/12/02 02:07:53;;;;;;;20.98;14.95;;;4.10;83.50;11.70;100100.00;;;;5058522;28;20633;-64
2020/12/02 02:10:27;;;;;;;20.50;14.05;;;4.10;83.50;11.80;100115.00;;;;5038710;28;20189;-64
2020/12/02 02:12:55;;;;;;;17.92;12.80;;;4.10;83.50;11.80;100110.00;;;;5056127;28;20177;-64
2020/12/02 02:15:54;;;;;;;19.02;14.73;;;4.10;83.50;11.90;100113.00;;;;5072195;28;20239;-64
2020/12/02 02:18:26;;;;;;;18.85;13.15;;;4.10;83.50;11.80;100106.00;;;;5073073;28;20543;-64
2020/12/02 02:20:58;;;;;;;20.85;13.98;;;4.10;83.50;11.80;100099.00;;;;5055731;28;20208;-64
2020/12/02 02:23:24;;;;;;;18.48;14.00;;;4.10;83.60;11.80;100093.00;;;;5056415;28;20185;-65
2020/12/02 02:26:13;;;;;;;17.40;13.37;;;4.00;83.40;11.70;100103.00;;;;5054086;28;20235;-64
2020/12/02 02:28:47;;;;;;;18.20;13.82;;;4.10;84.40;11.80;100104.00;;;;5072300;28;20181;-65
2020/12/02 02:31:21;;;;;;;18.23;13.88;;;4.10;83.50;11.60;100110.00;;;;5055636;28;20203;-65
2020/12/02 02:33:47;;;;;;;16.40;12.88;;;4.00;83.40;11.70;100099.00;;;;5039799;28;20181;-65
2020/12/02 02:36:14;;;;;;;19.70;13.50;;;4.00;83.50;11.80;100101.00;;;;5054874;28;20209;-65
2020/12/02 02:38:40;;;;;;;19.15;14.18;;;4.00;83.50;11.70;100101.00;;;;5055301;28;20180;-65
2020/12/02 02:41:08;;;;;;;19.37;14.20;;;4.00;83.50;11.90;100096.00;;;;5054145;28;20288;-66
2020/12/02 02:43:34;;;;;;;21.25;14.90;;;4.10;83.60;11.90;100082.00;;;;5055518;28;20276;-66
2020/12/02 02:45:59;;;;;;;17.30;13.70;;;4.00;83.50;11.80;100088.00;;;;5054319;28;20311;-65
2020/12/02 02:48:25;;;;;;;17.53;12.80;;;4.00;83.50;11.80;100077.00;;;;5072528;28;20439;-65
2020/12/02 02:50:50;;;;;;;18.70;13.57;;;4.00;83.50;11.80;100083.00;;;;5072732;28;20280;-65
2020/12/02 02:53:21;;;;;;;18.80;12.70;;;4.00;83.50;11.80;100086.00;;;;5054231;28;20184;-65
2020/12/02 02:55:48;;;;;;;19.25;12.57;;;4.00;83.40;11.80;100078.00;;;;5054981;28;20213;-65
2020/12/02 02:58:13;;;;;;;18.30;13.68;;;4.00;83.50;11.80;100078.00;;;;5055216;28;20169;-65
2020/12/02 03:00:40;;;;;;;22.00;14.40;;;4.00;83.40;11.80;100074.00;;;;5070691;28;20710;-65
2020/12/02 03:03:08;;;;;;;21.52;14.45;;;4.00;83.40;11.80;100073.00;;;;5053894;28;20178;-65
2020/12/02 03:05:33;;;;;;;22.63;13.25;;;4.00;83.40;11.80;100066.00;;;;5054641;28;20288;-66
2020/12/02 03:08:01;;;;;;;20.33;14.20;;;4.00;83.40;11.80;100067.00;;;;5020578;28;20697;-64
2020/12/02 03:10:31;;;;;;;21.27;15.20;;;4.00;84.30;11.80;100024.00;;;;5054924;28;20268;-65
2020/12/02 03:12:59;;;;;;;21.27;14.23;;;4.00;83.50;11.80;100074.00;;;;5054586;28;20670;-65
2020/12/02 03:15:25;;;;;;;17.50;12.88;;;4.00;83.40;11.70;100058.00;;;;5054395;28;20213;-64
2020/12/02 03:17:51;;;;;;;18.53;13.70;;;4.00;83.40;11.80;100062.00;;;;5053688;28;20535;-65
2020/12/02 03:20:20;;;;;;;17.43;13.03;;;4.00;84.20;11.60;100073.00;;;;5054435;28;20659;-64
2020/12/02 03:22:46;;;;;;;17.92;13.50;;;4.00;83.40;11.80;100070.00;;;;5054236;28;20170;-65
2020/12/02 03:25:17;;;;;;;21.97;14.30;;;4.00;83.40;11.60;100060.00;;;;5071095;28;20323;-65
2020/12/02 03:27:42;;;;;;;19.88;14.50;;;4.00;83.40;11.70;100068.00;;;;5054328;28;20984;-65
2020/12/02 03:30:08;;;;;;;19.30;13.73;;;4.00;83.40;11.80;100081.00;;;;5053996;28;20189;-64
2020/12/02 03:32:34;;;;;;;17.67;12.00;;;4.00;83.40;11.90;100079.00;;;;5070345;28;20629;-65
2020/12/02 03:35:00;;;;;;;17.83;12.90;;;4.00;83.40;11.70;100074.00;;;;5070724;28;20677;-66
2020/12/02 03:37:25;;;;;;;18.90;12.80;;;4.00;83.40;11.70;100073.00;;;;5070199;28;20422;-65
2020/12/02 03:39:51;;;;;;;19.20;13.60;;;4.00;83.30;11.70;100077.00;;;;5072553;28;20209;-65
2020/12/02 03:42:17;;;;;;;18.67;13.10;;;4.00;83.30;11.80;100082.00;;;;5071690;28;20205;-64
2020/12/02 03:44:42;;;;;;;18.80;12.93;;;4.00;83.30;11.70;100066.00;;;;5070538;28;20209;-65
2020/12/02 03:47:08;;;;;;;18.97;13.80;;;4.00;83.30;11.70;100075.00;;;;5071388;28;20227;-65
2020/12/02 03:49:34;;;;;;;17.03;13.03;;;4.00;84.10;11.80;100073.00;;;;5070518;28;20260;-65
2020/12/02 03:52:00;;;;;;;20.83;13.03;;;4.00;83.30;11.80;100069.00;;;;5070371;28;20209;-64
2020/12/02 03:54:25;;;;;;;19.47;14.03;;;4.00;83.40;11.70;100064.00;;;;5054154;28;20252;-65
2020/12/02 03:56:51;;;;;;;17.47;13.10;;;4.00;83.30;11.50;100065.00;;;;5069429;28;20962;-65
2020/12/02 03:59:17;;;;;;;19.33;14.70;;;4.00;83.40;11.50;100061.00;;;;5070515;28;20209;-67
2020/12/02 04:01:42;;;;;;;18.20;13.67;;;4.00;83.30;11.70;100062.00;;;;5069867;28;20660;-64
2020/12/02 04:04:08;;;;;;;18.90;13.23;;;4.00;83.30;11.50;100057.00;;;;5069840;28;20718;-65
2020/12/02 04:06:34;;;;;;;20.30;14.50;;;4.00;83.30;11.70;100068.00;;;;5053174;28;20583;-65
2020/12/02 04:09:00;;;;;;;20.50;14.23;;;4.00;84.00;11.60;100063.00;;;;5036861;28;20181;-65
2020/12/02 04:11:26;;;;;;;17.58;13.07;;;4.00;83.20;11.60;100051.00;;;;5052841;28;20201;-66
2020/12/02 04:13:51;;;;;;;17.93;13.20;;;4.00;83.20;11.80;100068.00;;;;5036491;28;20188;-66
2020/12/02 04:16:17;;;;;;;23.03;14.27;;;4.00;83.20;11.70;100065.00;;;;5069216;28;20224;-65
2020/12/02 04:18:43;;;;;;;17.73;12.20;;;4.00;83.30;11.60;100060.00;;;;5052298;28;20178;-65
2020/12/02 04:21:08;;;;;;;18.93;13.60;;;4.00;83.20;11.60;100063.00;;;;5052978;28;20969;-65
2020/12/02 04:23:34;;;;;;;15.23;12.50;;;4.00;83.20;11.60;100046.00;;;;5052526;28;20651;-65
2020/12/02 04:26:00;;;;;;;18.13;13.73;;;4.00;83.20;11.70;100053.00;;;;5069264;28;20248;-65
2020/12/02 04:28:25;;;;;;;16.37;12.27;;;4.00;83.30;11.60;100057.00;;;;5069228;28;20636;-65
2020/12/02 04:30:51;;;;;;;18.43;13.43;;;4.00;83.20;11.60;100061.00;;;;5070817;28;20193;-65
2020/12/02 04:33:17;;;;;;;21.33;15.03;;;3.90;83.10;11.70;100057.00;;;;5070049;28;20256;-65
2020/12/02 04:35:43;;;;;;;20.37;14.57;;;3.90;83.10;11.50;100051.00;;;;5069386;28;20276;-65
2020/12/02 04:38:09;;;;;;;17.95;12.70;;;4.00;83.20;11.70;100065.00;;;;5052478;28;20173;-65
2020/12/02 04:40:38;;;;;;;18.40;13.10;;;3.90;83.90;11.60;100057.00;;;;5052866;28;20683;-65
2020/12/02 04:43:27;;;;;;;17.33;12.77;;;3.90;83.00;11.60;100056.00;;;;5036355;28;20226;-64
2020/12/02 04:45:53;;;;;;;16.25;13.45;;;3.90;83.10;11.70;100061.00;;;;5042752;28;20235;-65
2020/12/02 04:48:22;;;;;;;18.73;13.20;;;3.90;83.00;11.60;100055.00;;;;5052315;28;20181;-65
2020/12/02 04:50:47;;;;;;;18.33;13.57;;;3.90;83.10;11.70;100053.00;;;;5053215;28;20225;-66
2020/12/02 04:53:21;;;;;;;18.40;13.10;;;3.90;83.00;11.60;100044.00;;;;5051896;28;20282;-65
2020/12/02 04:55:52;;;;;;;18.55;13.20;;;3.90;83.10;11.50;100037.00;;;;5069284;28;20247;-65
2020/12/02 04:58:30;;;;;;;20.27;13.90;;;3.90;83.10;11.40;100035.00;;;;5035718;28;20185;-66
2020/12/02 05:01:24;;;;;;;20.02;14.18;;;3.90;83.00;11.70;100042.00;;;;5069013;28;20236;-65
2020/12/02 05:04:04;;;;;;;19.55;13.57;;;3.90;83.00;11.50;100032.00;;;;5054095;28;20208;-65
2020/12/02 05:07:04;;;;;;;19.80;13.57;;;3.90;83.00;11.60;100052.00;;;;5052169;28;20760;-65
2020/12/02 05:09:35;;;;;;;21.33;14.95;;;3.90;83.10;11.60;100045.00;;;;5039779;28;20189;-65
2020/12/02 05:12:07;;;;;;;19.30;13.68;;;3.90;83.00;11.40;100056.00;;;;5069220;28;20663;-65
2020/12/02 05:14:41;;;;;;;20.42;13.27;;;3.90;83.00;11.60;100039.00;;;;5051871;28;20335;-65
2020/12/02 05:17:20;;;;;;;19.45;13.57;;;3.90;83.00;11.60;100051.00;;;;5068770;28;20201;-66
2020/12/02 05:20:10;;;;;;;22.15;14.50;;;3.90;83.00;11.50;100056.00;;;;5070027;28;20268;-66
2020/12/02 05:22:39;;;;;;;20.60;13.18;;;3.90;83.00;11.50;100056.00;;;;5055917;28;20238;-65
2020/12/02 05:25:14;;;;;;;18.58;13.82;;;3.90;83.00;11.40;100046.00;;;;5068865;28;20903;-66
2020/12/02 05:27:41;;;;;;;17.92;12.82;;;3.90;83.00;11.40;100044.00;;;;5051556;28;20184;-65
2020/12/02 05:30:40;;;;;;;21.98;15.25;;;3.90;83.00;11.50;100042.00;;;;5035523;28;20181;-66
2020/12/02 05:33:12;;;;;;;20.33;14.05;;;3.90;83.00;11.50;100041.00;;;;5068315;28;20186;-66
2020/12/02 05:35:41;;;;;;;18.40;12.85;;;3.90;83.80;11.60;100037.00;;;;5069679;28;20194;-66
2020/12/02 05:38:08;;;;;;;17.98;13.07;;;3.90;83.00;11.40;100043.00;;;;5052220;28;20715;-66
2020/12/02 05:40:35;;;;;;;20.02;14.32;;;3.90;83.00;11.50;100037.00;;;;5035538;28;20205;-66
2020/12/02 05:43:37;;;;;;;19.35;13.35;;;3.90;83.00;11.60;100043.00;;;;5051262;28;20183;-66
2020/12/02 05:46:03;;;;;;;21.23;13.35;;;3.90;83.00;11.50;100031.00;;;;5040158;28;20216;-66
2020/12/02 05:48:39;;;;;;;18.37;13.23;;;3.90;83.00;11.40;100017.00;;;;5034383;28;20247;-67
2020/12/02 05:51:07;;;;;;;19.38;13.45;;;3.90;83.00;11.50;100033.00;;;;5052351;28;20218;-66
2020/12/02 05:53:34;;;;;;;18.80;12.73;;;3.80;82.90;11.50;100037.00;;;;5035505;28;20177;-65
2020/12/02 05:56:01;;;;;;;18.40;13.65;;;3.90;83.00;11.50;100041.00;;;;5051837;28;20198;-66
2020/12/02 05:58:31;;;;;;;21.55;14.43;;;3.90;83.00;11.50;100037.00;;;;5051244;28;20174;-66
2020/12/02 06:00:57;;;;;;;21.33;14.23;;;3.80;82.90;11.50;100031.00;;;;5052119;28;20201;-66
2020/12/02 06:03:31;;;;;;;17.83;14.35;;;3.90;83.00;11.50;100038.00;;;;5051089;28;20209;-65
2020/12/02 06:06:11;;;;;;;21.55;14.52;;;3.80;82.90;11.40;100041.00;;;;5068438;28;20317;-66
2020/12/02 06:08:46;;;;;;;19.98;13.52;;;3.80;83.70;11.60;100034.00;;;;5051852;28;20583;-66
2020/12/02 06:11:18;;;;;;;20.33;13.93;;;3.80;82.90;11.50;100034.00;;;;5052206;28;20207;-66
2020/12/02 06:14:05;;;;;;;20.75;12.93;;;3.80;82.90;11.40;100034.00;;;;5069537;28;20183;-66
2020/12/02 06:16:37;;;;;;;16.23;11.52;;;3.80;82.90;11.50;100036.00;;;;5051822;28;20247;-66
2020/12/02 06:19:28;;;;;;;21.65;14.27;;;3.80;82.80;11.50;100041.00;;;;5067019;28;20181;-66
2020/12/02 06:22:02;;;;;;;19.65;13.38;;;3.80;82.80;11.20;100035.00;;;;5068463;28;20304;-66
2020/12/02 06:24:47;;;;;;;19.40;14.13;;;3.80;82.80;11.40;100041.00;;;;5051337;28;20213;-66
2020/12/02 06:27:15;;;;;;;17.90;13.25;;;3.80;82.80;11.40;100037.00;;;;5068531;28;20553;-65
2020/12/02 06:29:58;;;;;;;23.33;14.40;;;3.80;82.80;11.40;100034.00;;;;5069385;28;20264;-66
2020/12/02 06:32:24;;;;;;;18.65;13.38;;;3.80;82.90;11.50;100032.00;;;;5052220;28;20205;-65
2020/12/02 06:35:06;;;;;;;19.23;14.18;;;3.80;82.80;11.20;100031.00;;;;5051347;28;20181;-66
2020/12/02 06:37:32;;;;;;;22.48;14.77;;;3.80;83.60;11.50;100037.00;;;;5053880;28;20177;-65
2020/12/02 06:39:59;;;;;;;17.77;12.63;;;3.80;82.80;11.40;100031.00;;;;5072292;28;20536;-66
2020/12/02 06:42:38;;;;;;;18.73;13.65;;;3.80;82.80;11.20;100036.00;;;;5055333;28;20201;-65
2020/12/02 06:45:16;;;;;;;19.92;14.40;;;3.80;82.80;11.20;100039.00;;;;5054293;28;20262;-65
2020/12/02 06:47:56;;;;;;;18.25;13.88;;;3.80;82.80;11.40;100037.00;;;;5072495;28;20184;-66
2020/12/02 06:50:28;;;;;;;19.73;13.38;;;3.80;82.80;11.40;100041.00;;;;5054873;28;20207;-65
2020/12/02 06:52:57;;;;;;;20.55;13.68;;;3.80;82.80;11.40;100028.00;;;;5038466;28;20177;-66
2020/12/02 06:55:28;;;;;;;17.38;12.50;;;3.80;82.80;11.20;100036.00;;;;5055343;28;20217;-65
2020/12/02 06:58:09;;;;;;;20.02;13.57;;;3.80;82.80;11.30;100031.00;;;;5055061;28;20443;-66
2020/12/02 07:00:47;;;;;;;17.55;12.45;;;3.80;82.80;11.50;100041.00;;;;5070863;28;20224;-65
2020/12/02 07:03:26;;;;;;;19.73;12.25;;;3.80;82.80;11.50;100060.00;;;;5038159;28;20178;-65
2020/12/02 07:06:25;;;;;;;18.88;12.98;;;3.80;82.80;11.30;100058.00;;;;5054451;28;20213;-65
2020/12/02 07:09:10;;;;;;;19.23;12.77;;;3.80;82.90;11.30;100012.00;;;;5042336;28;20239;-66
2020/12/02 07:11:35;;;;;;;20.52;12.75;;;3.80;82.80;11.40;100064.00;;;;5039756;28;20212;-65
2020/12/02 07:14:29;;;;;;;19.27;12.30;;;3.80;82.80;11.40;100029.00;;;;5053602;28;20177;-66
2020/12/02 07:17:03;;;;;;;20.27;13.57;;;3.80;83.60;11.30;100066.00;;;;5071263;28;20205;-65
2020/12/02 07:19:36;;;;;;;20.02;13.10;;;3.80;82.80;11.20;100061.00;;;;5049911;28;20190;-65
2020/12/02 07:22:26;;;;;;;20.02;13.77;;;3.80;82.80;11.30;100067.00;;;;5034473;28;20246;-65
2020/12/02 07:24:59;;;;;;;23.38;13.63;;;3.80;82.80;11.30;100064.00;;;;5050371;28;20568;-65
2020/12/02 07:27:24;;;;;;;18.67;12.68;;;3.80;82.80;11.20;100059.00;;;;5038339;28;20296;-65
2020/12/02 07:29:58;;;;;;;19.40;13.30;;;3.70;82.60;11.30;100056.00;;;;5069100;28;20268;-67
2020/12/02 07:32:24;;;;;;;20.58;13.50;;;3.80;82.80;11.30;100056.00;;;;5053640;28;20682;-65
2020/12/02 07:35:19;;;;;;;18.30;13.00;;;3.70;82.70;11.10;100063.00;;;;5052412;28;20190;-66
2020/12/02 07:37:44;;;;;;;18.52;12.43;;;3.70;82.60;11.20;100056.00;;;;5060478;28;20979;-65
2020/12/02 07:40:34;;;;;;;18.00;13.27;;;3.70;82.60;11.40;100062.00;;;;5049621;28;20182;-65
2020/12/02 07:42:59;;;;;;;17.38;12.30;;;3.70;82.60;11.30;100053.00;;;;5050032;28;20436;-66
2020/12/02 07:45:31;;;;;;;18.03;12.73;;;3.70;82.60;11.30;100051.00;;;;5048966;28;20218;-65
2020/12/02 07:48:12;;;;;;;20.70;13.82;;;3.70;82.70;11.30;100056.00;;;;5049753;28;20194;-66
2020/12/02 07:50:53;;;;;;;20.33;12.90;;;3.70;82.70;11.30;100057.00;;;;5047983;28;20618;-65
2020/12/02 07:53:54;;;;;;;16.95;11.95;;;3.70;82.70;11.30;100077.00;;;;5049381;28;20193;-66
2020/12/02 07:56:30;;;;;;;18.70;12.98;;;3.70;82.70;11.40;100066.00;;;;5033442;28;20216;-65
2020/12/02 07:58:56;;;;;;;20.70;12.82;;;3.70;83.60;11.40;100070.00;;;;5049721;28;20185;-66
2020/12/02 08:01:34;;;;;;;20.20;13.20;;;3.70;82.80;11.40;100063.00;;;;5032329;28;20213;-65
2020/12/02 08:04:19;;;;;;;20.75;13.60;;;3.70;82.80;11.40;100069.00;;;;5050048;28;20656;-66
2020/12/02 08:07:01;;;;;;;19.90;13.07;;;3.70;82.80;11.30;100063.00;;;;5049531;28;20268;-65
2020/12/02 08:09:27;;;;;;;16.58;12.23;;;3.70;82.80;11.40;100068.00;;;;5033134;28;20680;-66
2020/12/02 08:11:58;;;;;;;19.65;12.88;;;3.70;82.80;11.30;100081.00;;;;5049131;28;20198;-66
2020/12/02 08:14:40;;;;;;;15.70;11.88;;;3.70;82.80;11.40;100074.00;;;;5056657;28;20182;-66
2020/12/02 08:17:20;;;;;;;21.65;13.30;;;3.70;82.80;11.30;100078.00;;;;5053757;28;20222;-66
2020/12/02 08:19:48;;;;;;;20.52;13.98;;;3.70;82.80;11.40;100063.00;;;;5069834;28;20532;-66
2020/12/02 08:22:43;;;;;;;18.92;12.32;;;3.70;82.80;11.40;100063.00;;;;5069549;28;20204;-66
2020/12/02 08:25:22;;;;;;;18.25;12.10;;;3.70;82.80;11.40;100056.00;;;;5053381;28;20240;-66
2020/12/02 08:27:57;;;;;;;18.15;12.05;;;3.70;82.80;11.30;100057.00;;;;5069800;28;20181;-66
2020/12/02 08:30:25;;;;;;;18.52;13.05;;;3.70;82.90;11.30;100060.00;;;;5038181;28;20181;-66
2020/12/02 08:33:12;;;;;;;19.65;13.32;;;3.70;82.80;11.40;100054.00;;;;5069518;28;20204;-67
2020/12/02 08:35:46;;;;;;;17.92;13.40;;;3.70;82.80;11.20;100064.00;;;;5054882;28;20205;-66
2020/12/02 08:38:32;;;;;;;20.20;12.10;;;3.70;82.80;11.40;100055.00;;;;5052776;28;20185;-66
2020/12/02 08:40:58;;;;;;;18.65;12.35;;;3.70;82.80;11.30;100056.00;;;;5055274;28;20193;-66
2020/12/02 08:43:34;;;;;;;17.23;13.25;;;3.70;82.80;11.20;100057.00;;;;5069028;28;20184;-67
2020/12/02 08:46:22;;;;;;;18.83;12.75;;;3.70;82.80;11.40;100050.00;;;;5068715;28;20219;-66
2020/12/02 08:48:58;;;;;;;15.15;11.93;;;3.70;82.80;11.40;100052.00;;;;5054187;28;20180;-66
2020/12/02 08:51:24;;;;;;;18.35;12.45;;;3.70;83.00;11.20;100057.00;;;;5053427;28;20197;-66
2020/12/02 08:53:50;;;;;;;19.45;12.77;;;3.70;82.90;11.20;100062.00;;;;5035979;28;20557;-67
2020/12/02 08:56:32;;;;;;;16.92;12.35;;;3.70;82.90;11.40;100057.00;;;;5035750;28;20383;-67
2020/12/02 08:58:58;;;;;;;20.45;13.23;;;3.70;82.90;11.20;100061.00;;;;5070297;28;20192;-67
2020/12/02 09:01:24;;;;;;;20.27;12.80;;;3.70;82.90;11.20;100050.00;;;;5052321;28;20228;-67
2020/12/02 09:03:50;;;;;;;20.37;13.93;;;3.70;82.90;11.30;100050.00;;;;5052504;28;20524;-66
2020/12/02 09:06:17;;;;;;;17.90;13.13;;;3.70;82.90;11.20;100040.00;;;;5051664;28;20476;-67
2020/12/02 09:08:44;;;;;;;18.42;12.40;;;3.70;82.90;11.30;100053.00;;;;5035716;28;20239;-66
2020/12/02 09:11:11;;;;;;;20.13;13.35;;;3.70;83.70;11.20;100043.00;;;;5035211;28;20242;-67
2020/12/02 09:13:37;;;;;;;16.30;12.45;;;3.70;82.90;11.40;100062.00;;;;5052303;28;20169;-66
2020/12/02 09:16:02;;;;;;;23.73;14.37;;;3.70;83.00;11.10;100047.00;;;;5068245;28;20204;-66
2020/12/02 09:18:28;;;;;;;21.47;15.83;;;3.70;82.90;11.30;100049.00;;;;5069806;28;20182;-67
2020/12/02 09:20:54;;;;;;;20.23;12.97;;;3.80;83.10;11.30;100053.00;;;;5069885;28;20575;-67
2020/12/02 09:23:19;;;;;;;19.07;12.77;;;3.80;83.30;11.30;100046.00;;;;5052088;28;20185;-67
2020/12/02 09:25:45;;;;;;;22.03;13.97;;;3.80;83.20;11.40;100039.00;;;;5068911;28;20217;-67
2020/12/02 09:28:11;;;;;;;17.87;12.43;;;3.70;83.10;11.30;100027.00;;;;5068272;28;20236;-67
2020/12/02 09:30:36;;;;;;;17.70;12.53;;;3.70;83.10;11.30;100036.00;;;;5052423;28;20201;-67
2020/12/02 09:33:02;;;;;;;19.47;13.50;;;3.70;83.10;11.40;100023.00;;;;5051618;28;20196;-66
2020/12/02 09:35:28;;;;;;;22.33;13.07;;;3.80;83.20;11.40;100028.00;;;;5050171;28;20204;-67
2020/12/02 09:37:54;;;;;;;21.50;14.33;;;3.70;83.10;11.40;100031.00;;;;5055362;28;20638;-67
2020/12/02 09:40:20;;;;;;;19.57;12.33;;;3.70;83.00;11.40;100028.00;;;;5048510;28;20494;-67
2020/12/02 09:43:14;;;;;;;16.92;11.75;;;3.70;83.00;11.50;100020.00;;;;5053346;28;20237;-67
2020/12/02 09:46:06;;;;;;;18.70;12.65;;;3.70;83.00;11.40;100021.00;;;;5054623;28;20236;-68
2020/12/02 09:48:36;;;;;;;18.75;13.02;;;3.70;83.00;11.40;100026.00;;;;5052089;28;20202;-67
2020/12/02 09:51:18;;;;;;;17.23;13.00;;;3.70;83.00;11.40;100005.00;;;;5067793;28;20290;-67
2020/12/02 09:53:44;;;;;;;17.42;12.30;;;3.70;83.00;11.40;100000.00;;;;5053018;28;20187;-68
2020/12/02 09:56:10;;;;;;;19.63;13.53;;;3.80;83.10;11.40;100004.00;;;;5052461;28;20206;-67
2020/12/02 09:58:36;;;;;;;21.58;13.70;;;3.80;83.10;11.30;100003.00;;;;5047400;28;20308;-67
2020/12/02 10:01:05;;;;;;;20.25;12.57;;;3.70;83.00;11.40;100003.00;;;;5047545;28;20210;-67
2020/12/02 10:03:43;;;;;;;19.70;14.55;;;3.70;83.00;11.40;100002.00;;;;5030875;28;20174;-68
2020/12/02 10:06:35;;;;;;;17.80;12.65;;;3.80;83.10;11.40;99994.00;;;;5047941;28;20225;-68
2020/12/02 10:09:13;;;;;;;20.13;13.00;;;3.80;83.10;11.30;99986.00;;;;5030777;28;20525;-68
2020/12/02 10:11:54;;;;;;;19.88;13.35;;;3.70;83.00;11.20;99984.00;;;;5047841;28;20236;-67
2020/12/02 10:14:31;;;;;;;18.67;12.63;;;3.70;83.00;11.40;99987.00;;;;5033203;28;20186;-67
2020/12/02 10:17:37;;;;;;;17.75;12.52;;;3.70;83.00;11.40;99975.00;;;;5050795;28;20688;-67
2020/12/02 10:20:38;;;;;;;17.20;11.60;;;3.80;83.10;11.30;99973.00;;;;5003560;28;20197;-68
2020/12/02 10:23:44;;;;;;;19.95;12.80;;;3.80;83.10;11.30;99964.00;;;;5062632;28;20204;-67
2020/12/02 10:26:42;;;;;;;18.63;12.23;;;3.80;83.10;11.30;99958.00;;;;5071389;28;20760;-67
2020/12/02 10:29:12;;;;;;;16.58;12.15;;;3.80;83.10;11.10;99945.00;;;;5050679;28;20201;-67
2020/12/02 10:31:53;;;;;;;17.95;11.82;;;3.80;83.10;11.20;99958.00;;;;5018317;28;20206;-68
2020/12/02 10:34:27;;;;;;;18.27;12.60;;;3.80;83.10;11.20;99944.00;;;;5051786;28;20563;-68
2020/12/02 10:37:14;;;;;;;18.73;12.88;;;3.80;83.10;11.30;99946.00;;;;5050146;28;20194;-68
2020/12/02 10:39:40;;;;;;;19.00;11.60;;;3.80;83.10;11.30;99940.00;;;;5057032;28;20426;-67
2020/12/02 10:42:20;;;;;;;20.63;13.30;;;3.80;83.10;11.30;99934.00;;;;5050975;28;20384;-67
2020/12/02 10:44:59;;;;;;;18.58;12.70;;;3.80;83.10;11.10;99918.00;;;;5050731;28;20579;-67
2020/12/02 10:48:06;;;;;;;18.42;12.30;;;3.80;83.10;11.40;99923.00;;;;5067198;28;20210;-67
2020/12/02 10:50:34;;;;;;;15.48;10.60;;;3.80;83.10;11.30;99911.00;;;;5050188;28;20546;-67
2020/12/02 10:53:07;;;;;;;17.67;11.77;;;3.70;83.00;11.30;99910.00;;;;5032870;28;20431;-68
2020/12/02 10:55:34;;;;;;;19.02;12.27;;;3.80;83.10;11.40;99902.00;;;;5050875;28;20202;-67
2020/12/02 10:58:01;;;;;;;17.10;13.05;;;3.80;83.40;11.40;99907.00;;;;5033568;28;20174;-68
2020/12/02 11:00:26;;;;;;;18.92;12.68;;;3.80;83.10;11.30;99903.00;;;;5049650;28;20206;-67
2020/12/02 11:03:15;;;;;;;17.27;12.00;;;3.80;83.10;11.40;99902.00;;;;5051225;28;20193;-68
2020/12/02 11:05:42;;;;;;;17.73;13.35;;;3.80;83.00;11.30;99894.00;;;;5065381;28;20209;-67